Terminal Aerodrome Forecast
Issued by NWS

Home | Current Version | Previous Version | Text Only | Print | Product List | Glossary On
Versions: 1 2 3 4 5 6 7 8 9 10 11 12 13 14 15 16 17 18 19 20 21 22 23 24 25 26 27 28 29 30 31 32
000
FTUS45 KGJT 241134
TAFASE
TAF
KASE 241134Z 2412/2512 18008KT P6SM OVC080
     FM241600 32008KT P6SM SCT080
     FM241800 24010G20KT P6SM VCSH SCT060 BKN080
     FM250000 23008G18KT P6SM -SHRA BKN060
     FM250400 32008KT 4SM -SHRA OVC025
     FM250700 VRB03KT 2SM -SHRASN OVC015=

USA.gov is the U.S. government's official web portal to all federal, state and local government web resources and services.